Home PIREPS Pireps

Flight WIN1066

  • Submitted By: AndrĂ© Vincent
  • Departure Airport: Brussels South (EBCI)
  • Arrival Airport: Tarbes-Lourdes-Pyrenees (LFBT)
  • Aircraft: YOUR CHOICE (YC)
  • Flight Time: 01.34
  • Date Submitted: 07/03/2017
  • Status: Accepted
Flight Details
Gross Revenue:
(25 load / € 0.00 per unit
€ 0.00
Fuel Cost:
(7788 fuel used @ 5.1 / unit)
€ 39,718.80

Additional Log Information:

View Log

Aircraft Used in flight is Boeing 737-800 sabena paint
08:47 Brakes are On
08:49 Brakes are Released
08:53 You Took off @ 204 Knots and Flaps at Position 2
Departure Weather
EBCI 070720Z 27007KT 6000 FEW005 BKN007 05/04 Q1014 NOSIGrn
08:53 You are Airborne and your Navigation Lights are off
08:53 Landing Gear Up @ 206 Knots and 210 Feet
08:56 Below Fl100 you need to turn on the landing lights
08:56 Below FL100 you need to turn on the landing lights
09:16 Overspeed
09:17 Recovered from Overspeed
09:20 Overspeed
09:20 Recovered from Overspeed
09:41 You exceeded maximum bank angle
09:45 Overspeed
09:45 Recovered from Overspeed
10:05 Below 10000 feet you are not allowed to go over 250 knots
10:13 Landing Gear Down @ 153 Knots and 3060 Feet
10:16 You Landed @ 115 Knots and with -750 Vertical Speed
Arrival Weather
LFBT 070900Z AUTO 25007KT 9999 OVC058 10/04 Q1025 TEMPO BKN014rn
10:16 Your Landing was very hard
10:20 Brakes are On
10:22 Brussels Bel-Track1.0.1.2

Route Map

Corporate About Us Our Team Vacancies Information Fleet Route Network Rules and Regulations Operations Flight Schedules Event Center Tours Partners IVAO Vatsim Acars dev FSCB

fb Users Online Belgium Martin Witters, Belgium Bennie Peeters, Belgium Jos Viville,
3 Pilot(s) and 149 Guest(s) Online
CMS by phpVMS - Design by Crazycreatives.com - Copyright © 2018 - Brussels Airlines Virtual